createdAt,value
2018-10-01T00:00:34.398Z,102693.29
2018-10-01T00:03:03.108Z,102698.17
2018-10-01T00:05:31.797Z,102701.30
2018-10-01T00:08:00.791Z,102700.17
2018-10-01T00:10:29.477Z,102708.02
2018-10-01T00:12:58.207Z,102709.77
2018-10-01T00:15:26.912Z,102712.38
2018-10-01T00:17:55.788Z,102711.14
2018-10-01T00:20:29.567Z,102711.52
2018-10-01T00:22:58.275Z,102715.43
2018-10-01T00:25:26.977Z,102712.81
2018-10-01T00:27:55.668Z,102720.23
2018-10-01T00:30:24.390Z,102724.58
2018-10-01T00:32:53.092Z,102722.85
2018-10-01T00:35:21.821Z,102732.91
2018-10-01T00:37:50.513Z,102734.72
2018-10-01T00:40:19.228Z,102729.48
2018-10-01T00:42:47.908Z,102726.45
2018-10-01T00:45:16.623Z,102725.16
2018-10-01T00:47:45.336Z,102723.48
2018-10-01T00:50:14.045Z,102731.81
2018-10-01T00:52:42.730Z,102740.54
2018-10-01T00:55:11.431Z,102741.95
2018-10-01T00:57:40.088Z,102747.17
2018-10-01T01:00:08.827Z,102752.03
2018-10-01T01:02:37.508Z,102748.92
2018-10-01T01:05:06.286Z,102754.16
2018-10-01T01:07:35.032Z,102752.03
2018-10-01T01:10:03.837Z,102749.86
2018-10-01T01:12:32.508Z,102751.63
2018-10-01T01:15:01.250Z,102755.16
2018-10-01T01:17:29.939Z,102750.86
2018-10-01T01:19:58.603Z,102749.55
2018-10-01T01:22:27.315Z,102752.16
2018-10-01T01:24:56.144Z,102758.69
2018-10-01T01:27:24.844Z,102750.88
2018-10-01T01:29:53.609Z,102752.62
2018-10-01T01:32:22.320Z,102756.16
2018-10-01T01:34:51.092Z,102758.41
2018-10-01T01:37:19.765Z,102759.33
2018-10-01T01:39:48.583Z,102755.02
2018-10-01T01:42:17.265Z,102757.65
2018-10-01T01:44:45.904Z,102759.89
2018-10-01T01:47:14.611Z,102759.06
2018-10-01T01:49:43.296Z,102763.48
2018-10-01T01:52:11.971Z,102760.48
2018-10-01T01:54:40.670Z,102769.20
2018-10-01T01:57:09.355Z,102760.99
2018-10-01T01:59:38.003Z,102762.75
2018-10-01T02:02:06.728Z,102770.60
2018-10-01T02:04:35.448Z,102771.09
2018-10-01T02:07:04.163Z,102776.75
2018-10-01T02:09:32.916Z,102778.94
2018-10-01T02:12:01.583Z,102784.16
2018-10-01T02:14:30.308Z,102792.00
2018-10-01T02:16:59.041Z,102775.50
2018-10-01T02:19:27.713Z,102763.80
2018-10-01T02:21:56.431Z,102772.41
2018-10-01T02:24:25.084Z,102773.77
2018-10-01T02:26:53.768Z,102768.98
2018-10-01T02:29:22.407Z,102766.37
2018-10-01T02:31:51.140Z,102757.72
2018-10-01T02:34:19.833Z,102759.03
2018-10-01T02:36:48.520Z,102761.69
2018-10-01T02:39:17.205Z,102745.16
2018-10-01T02:41:45.867Z,102740.85
2018-10-01T02:44:14.528Z,102731.73
2018-10-01T02:46:43.217Z,102731.79
2018-10-01T02:49:11.913Z,102735.31
2018-10-01T02:51:45.614Z,102744.09
2018-10-01T02:54:19.317Z,102752.41
2018-10-01T02:56:47.999Z,102747.29
2018-10-01T02:59:16.776Z,102756.02
2018-10-01T03:01:45.516Z,102768.69
2018-10-01T03:04:14.184Z,102769.66
2018-10-01T03:06:42.979Z,102775.75
2018-10-01T03:09:13.920Z,102776.67
2018-10-01T03:11:43.007Z,102777.59
2018-10-01T03:14:12.477Z,102776.73
2018-10-01T03:16:41.171Z,102792.39
2018-10-01T03:19:09.911Z,102778.52
2018-10-01T03:21:39.173Z,102774.12
2018-10-01T03:24:08.351Z,102763.29
2018-10-01T03:26:37.065Z,102756.34
2018-10-01T03:29:05.804Z,102751.55
2018-10-01T03:31:34.506Z,102758.06
2018-10-01T03:34:03.139Z,102765.90
2018-10-01T03:36:31.804Z,102757.16
2018-10-01T03:39:00.544Z,102768.89
2018-10-01T03:41:29.277Z,102772.76
2018-10-01T03:43:57.976Z,102765.37
2018-10-01T03:46:26.667Z,102770.14
2018-10-01T03:48:55.383Z,102753.55
2018-10-01T03:51:24.079Z,102764.44
2018-10-01T03:53:52.825Z,102787.43
2018-10-01T03:56:21.498Z,102789.95
2018-10-01T03:58:50.190Z,102799.08
2018-10-01T04:01:18.875Z,102805.55
2018-10-01T04:03:47.564Z,102809.02
2018-10-01T04:06:16.254Z,102809.84
2018-10-01T04:08:44.952Z,102817.67
2018-10-01T04:11:13.661Z,102812.84
2018-10-01T04:13:42.352Z,102812.02
2018-10-01T04:16:11.069Z,102811.54
2018-10-01T04:18:39.778Z,102818.55
2018-10-01T04:21:08.451Z,102823.77
2018-10-01T04:23:37.104Z,102824.16
2018-10-01T04:26:05.841Z,102822.41
2018-10-01T04:28:34.479Z,102828.08
2018-10-01T04:31:03.199Z,102831.11
2018-10-01T04:33:31.903Z,102833.28
2018-10-01T04:36:00.569Z,102842.81
2018-10-01T04:38:29.239Z,102852.38
2018-10-01T04:40:57.923Z,102850.20
2018-10-01T04:43:26.580Z,102857.13
2018-10-01T04:45:55.269Z,102862.28
2018-10-01T04:48:24.067Z,102859.20
2018-10-01T04:50:52.808Z,102862.66
2018-10-01T04:53:21.532Z,102853.91
2018-10-01T04:55:50.247Z,102851.25
2018-10-01T04:58:18.971Z,102863.38
2018-10-01T05:00:47.584Z,102850.37
2018-10-01T05:03:16.340Z,102850.85
2018-10-01T05:05:45.065Z,102856.57
2018-10-01T05:08:13.779Z,102854.84
2018-10-01T05:10:42.471Z,102855.32
2018-10-01T05:13:11.148Z,102846.67
2018-10-01T05:15:39.884Z,102853.69
2018-10-01T05:18:08.606Z,102846.35
2018-10-01T05:20:37.326Z,102854.23
2018-10-01T05:23:06.120Z,102859.02
2018-10-01T05:25:34.898Z,102859.94
2018-10-01T05:28:03.652Z,102849.11
2018-10-01T05:30:32.448Z,102855.69
2018-10-01T05:33:01.233Z,102865.26
2018-10-01T05:35:29.923Z,102865.26
2018-10-01T05:37:58.745Z,102869.17
2018-10-01T05:40:27.331Z,102865.66
2018-10-01T05:42:56.050Z,102875.22
2018-10-01T05:45:24.735Z,102876.97
2018-10-01T05:47:53.439Z,102870.92
2018-10-01T05:50:22.140Z,102873.57
2018-10-01T05:52:50.867Z,102876.63
2018-10-01T05:55:19.545Z,102878.89
2018-10-01T05:57:48.281Z,102882.38
2018-10-01T06:00:16.963Z,102883.73
2018-10-01T06:02:45.692Z,102886.40
2018-10-01T06:05:14.392Z,102877.34
2018-10-01T06:07:43.147Z,102883.88
2018-10-01T06:10:11.867Z,102890.02
2018-10-01T06:12:40.565Z,102891.37
2018-10-01T06:15:09.278Z,102892.72
2018-10-01T06:17:37.965Z,102904.95
2018-10-01T06:20:06.968Z,102903.20
2018-10-01T06:22:35.782Z,102901.91
2018-10-01T06:25:05.033Z,102906.29
2018-10-01T06:27:33.701Z,102909.34
2018-10-01T06:30:02.450Z,102909.34
2018-10-01T06:32:31.152Z,102911.95
2018-10-01T06:34:59.991Z,102906.68
2018-10-01T06:37:28.829Z,102913.59
2018-10-01T06:39:57.764Z,102917.95
2018-10-01T06:42:26.596Z,102919.64
2018-10-01T06:44:55.336Z,102918.30
2018-10-01T06:47:24.125Z,102925.68
2018-10-01T06:49:52.873Z,102922.16
2018-10-01T06:52:21.678Z,102926.02
2018-10-01T06:54:50.628Z,102924.63
2018-10-01T06:57:19.385Z,102928.10
2018-10-01T06:59:48.314Z,102937.63
2018-10-01T07:02:17.044Z,102939.32
2018-10-01T07:04:45.841Z,102933.19
2018-10-01T07:07:14.648Z,102943.14
2018-10-01T07:09:43.328Z,102941.78
2018-10-01T07:12:12.268Z,102942.17
2018-10-01T07:14:40.982Z,102944.69
2018-10-01T07:17:09.885Z,102952.03
2018-10-01T07:19:38.663Z,102962.00
2018-10-01T07:22:07.562Z,102960.20
2018-10-01T07:24:36.408Z,102970.61
2018-10-01T07:27:05.229Z,102971.43
2018-10-01T07:29:34.083Z,102972.29
2018-10-01T07:32:02.719Z,102975.25
2018-10-01T07:34:31.398Z,102976.06
2018-10-01T07:37:00.102Z,102986.49
2018-10-01T07:39:28.808Z,102985.58
2018-10-01T07:41:57.549Z,102994.19
2018-10-01T07:44:26.256Z,102995.92
2018-10-01T07:46:54.930Z,103001.97
2018-10-01T07:49:23.697Z,103004.53
2018-10-01T07:51:52.495Z,103011.45
2018-10-01T07:54:21.163Z,103020.15
2018-10-01T07:56:49.936Z,103026.15
2018-10-01T07:59:18.617Z,103029.53
2018-10-01T08:01:47.327Z,103029.83
2018-10-01T08:04:16.038Z,103035.77
2018-10-01T08:06:44.747Z,103046.54
2018-10-01T08:09:13.435Z,103054.23
2018-10-01T08:11:42.157Z,103061.97
2018-10-01T08:14:10.959Z,103056.63
2018-10-01T08:16:39.570Z,103060.00
2018-10-01T08:19:08.252Z,103060.72
2018-10-01T08:21:36.963Z,103061.02
2018-10-01T08:24:05.664Z,103067.34
2018-10-01T08:26:34.414Z,103058.89
2018-10-01T08:29:03.133Z,103064.27
2018-10-01T08:31:31.843Z,103065.39
2018-10-01T08:34:00.568Z,103059.53
2018-10-01T08:36:29.283Z,103066.84
2018-10-01T08:38:57.991Z,103071.91
2018-10-01T08:41:26.733Z,103068.66
2018-10-01T08:43:55.479Z,103067.21
2018-10-01T08:46:24.172Z,103069.69
2018-10-01T08:49:00.720Z,103078.37
2018-10-01T08:51:35.040Z,103067.52
2018-10-01T08:54:12.707Z,103070.58
2018-10-01T08:56:41.527Z,103062.58
2018-10-01T08:59:10.492Z,103069.73
2018-10-01T09:01:39.176Z,103069.98
2018-10-01T09:04:07.895Z,103074.65
2018-10-01T09:06:36.591Z,103075.45
2018-10-01T09:09:07.743Z,103075.83
2018-10-01T09:11:36.565Z,103066.66
2018-10-01T09:14:05.310Z,103068.89
2018-10-01T09:16:33.977Z,103078.02
2018-10-01T09:19:02.716Z,103077.55
2018-10-01T09:21:31.586Z,103083.05
2018-10-01T09:24:00.436Z,103072.03
2018-10-01T09:26:29.240Z,103087.94
2018-10-01T09:28:57.932Z,103086.92
2018-10-01T09:31:26.610Z,103085.52
2018-10-01T09:33:55.304Z,103084.13
2018-10-01T09:36:24.012Z,103079.61
2018-10-01T09:38:52.877Z,103087.33
2018-10-01T09:41:21.578Z,103086.11
2018-10-01T09:43:50.286Z,103097.05
2018-10-01T09:46:18.979Z,103094.98
2018-10-01T09:48:47.674Z,103091.73
2018-10-01T09:51:16.412Z,103092.38
2018-10-01T09:53:45.142Z,103099.22
2018-10-01T09:56:13.880Z,103099.08
2018-10-01T09:58:42.504Z,103101.40
2018-10-01T10:01:13.560Z,103110.20
2018-10-01T10:03:42.255Z,103110.58
2018-10-01T10:06:10.968Z,103109.24
2018-10-01T10:08:40.071Z,103108.67
2018-10-01T10:11:08.809Z,103104.67
2018-10-01T10:13:37.512Z,103108.67
2018-10-01T10:16:06.320Z,103098.76
2018-10-01T10:18:35.029Z,103096.21
2018-10-01T10:21:04.026Z,103105.31
2018-10-01T10:23:32.771Z,103100.49
2018-10-01T10:26:01.537Z,103099.62
2018-10-01T10:28:30.253Z,103098.31
2018-10-01T10:30:59.022Z,103102.55
2018-10-01T10:33:27.719Z,103107.29
2018-10-01T10:38:20.065Z,103104.98
2018-10-01T10:40:48.749Z,103105.75
2018-10-01T10:43:17.448Z,103090.41
2018-10-01T10:45:46.130Z,103112.13
2018-10-01T10:48:14.890Z,103107.73
2018-10-01T10:50:43.587Z,103112.03
2018-10-01T10:53:12.243Z,103116.27
2018-10-01T10:55:40.921Z,103110.51
2018-10-01T10:58:09.595Z,103106.50
2018-10-01T11:00:38.304Z,103101.17
2018-10-01T11:03:07.056Z,103107.59
2018-10-01T11:05:35.757Z,103100.17
2018-10-01T11:08:04.528Z,103100.53
2018-10-01T11:10:33.171Z,103106.52
2018-10-01T11:13:01.840Z,103096.45
2018-10-01T11:15:30.668Z,103110.22
2018-10-01T11:17:59.333Z,103114.54
2018-10-01T11:20:28.153Z,103106.17
2018-10-01T11:22:56.757Z,103105.42
2018-10-01T11:25:25.478Z,103098.27
2018-10-01T11:27:54.211Z,103098.77
2018-10-01T11:30:22.881Z,103100.87
2018-10-01T11:32:51.596Z,103106.31
2018-10-01T11:35:20.428Z,103091.97
2018-10-01T11:37:49.059Z,103086.78
2018-10-01T11:40:17.745Z,103088.36
2018-10-01T11:42:46.450Z,103088.00
2018-10-01T11:45:15.226Z,103085.11
2018-10-01T11:47:44.109Z,103074.53
2018-10-01T11:50:12.899Z,103081.70
2018-10-01T11:52:41.624Z,103080.55
2018-10-01T11:55:10.374Z,103082.21
2018-10-01T11:57:39.233Z,103082.27
2018-10-01T12:00:08.774Z,103084.09
2018-10-01T12:02:37.465Z,103089.73
2018-10-01T12:05:06.944Z,103081.08
2018-10-01T12:07:35.657Z,103077.24
2018-10-01T12:10:04.512Z,103077.92
2018-10-01T12:12:33.161Z,103065.27
2018-10-01T12:15:01.958Z,103053.03
2018-10-01T12:17:30.825Z,103057.29
2018-10-01T12:19:59.625Z,103048.89
2018-10-01T12:22:28.487Z,103043.98
2018-10-01T12:24:57.212Z,103030.76
2018-10-01T12:27:25.875Z,103036.87
2018-10-01T12:29:54.568Z,103026.14
2018-10-01T12:32:23.277Z,103026.26
2018-10-01T12:34:51.999Z,103024.94
2018-10-01T12:37:20.719Z,103015.10
2018-10-01T12:39:49.496Z,103022.78
2018-10-01T12:42:18.175Z,103016.83
2018-10-01T12:44:46.868Z,103024.48
2018-10-01T12:47:15.555Z,103019.89
2018-10-01T12:49:44.348Z,103008.97
2018-10-01T12:52:13.081Z,103006.22
2018-10-01T12:54:41.760Z,103019.40
2018-10-01T12:57:10.509Z,103019.81
2018-10-01T12:59:39.198Z,103019.28
2018-10-01T13:02:08.028Z,103013.92
2018-10-01T13:04:36.704Z,103015.03
2018-10-01T13:07:05.403Z,103021.68
2018-10-01T13:09:34.127Z,103016.43
2018-10-01T13:12:02.880Z,103023.92
2018-10-01T13:14:31.595Z,103027.86
2018-10-01T13:17:00.322Z,103021.16
2018-10-01T13:19:29.036Z,103022.83
2018-10-01T13:21:57.740Z,103027.33
2018-10-01T13:24:26.454Z,103028.39
2018-10-01T13:26:55.148Z,103034.28
2018-10-01T13:29:23.936Z,103027.03
2018-10-01T13:31:52.720Z,103032.05
2018-10-01T13:34:21.394Z,103033.22
2018-10-01T13:36:50.153Z,103037.77
2018-10-01T13:39:18.875Z,103028.09
2018-10-01T13:41:47.561Z,103028.84
2018-10-01T13:44:16.367Z,103026.37
2018-10-01T13:46:45.011Z,103034.66
2018-10-01T13:49:13.699Z,103047.06
2018-10-01T13:51:42.371Z,103059.36
2018-10-01T13:54:11.394Z,103046.30
2018-10-01T13:56:40.088Z,103036.62
2018-10-01T13:59:08.759Z,103043.80
2018-10-01T14:01:37.595Z,103026.86
2018-10-01T14:04:06.197Z,103034.80
2018-10-01T14:06:34.958Z,103033.80
2018-10-01T14:09:04.940Z,103035.84
2018-10-01T14:11:33.638Z,103028.27
2018-10-01T14:14:02.335Z,103044.83
2018-10-01T14:16:31.031Z,103040.51
2018-10-01T14:18:59.801Z,103029.91
2018-10-01T14:21:28.460Z,103046.28
2018-10-01T14:23:57.171Z,103033.30
2018-10-01T14:26:26.437Z,103021.93
2018-10-01T14:28:55.171Z,103031.60
2018-10-01T14:31:23.849Z,103022.56
2018-10-01T14:33:52.541Z,103026.31
2018-10-01T14:36:21.452Z,103025.69
2018-10-01T14:38:50.291Z,103022.34
2018-10-01T14:41:18.973Z,103009.09
2018-10-01T14:43:47.710Z,103013.05
2018-10-01T14:46:16.470Z,103013.58
2018-10-01T14:48:45.326Z,103013.89
2018-10-01T14:51:14.319Z,103002.30
2018-10-01T14:53:43.072Z,103009.13
2018-10-01T14:56:12.084Z,102997.22
2018-10-01T14:58:40.832Z,102994.94
2018-10-01T15:01:09.570Z,102996.98
2018-10-01T15:03:38.742Z,103002.58
2018-10-01T15:06:07.572Z,102997.23
2018-10-01T15:08:36.512Z,103000.38
2018-10-01T15:11:05.385Z,102996.13
2018-10-01T15:13:34.132Z,102989.33
2018-10-01T15:16:02.848Z,102991.31
2018-10-01T15:18:31.780Z,102988.10
2018-10-01T15:21:00.586Z,102978.14
2018-10-01T15:23:29.529Z,102988.47
2018-10-01T15:25:58.290Z,102967.01
2018-10-01T15:28:27.098Z,102963.59
2018-10-01T15:30:55.898Z,102955.69
2018-10-01T15:33:24.728Z,102949.89
2018-10-01T15:35:53.396Z,102951.33
2018-10-01T15:38:22.260Z,102959.77
2018-10-01T15:40:50.972Z,102945.53
2018-10-01T15:43:19.824Z,102940.45
2018-10-01T15:45:48.631Z,102940.79
2018-10-01T15:48:17.439Z,102944.48
2018-10-01T15:50:46.223Z,102950.55
2018-10-01T15:53:15.091Z,102951.86
2018-10-01T15:55:43.826Z,102934.89
2018-10-01T15:58:12.498Z,102943.95
2018-10-01T16:00:41.198Z,102954.40
2018-10-01T16:03:09.987Z,102951.60
2018-10-01T16:05:38.755Z,102956.73
2018-10-01T16:08:07.611Z,102954.02
2018-10-01T16:10:36.331Z,102948.87
2018-10-01T16:13:05.069Z,102961.06
2018-10-01T16:15:33.813Z,102965.14
2018-10-01T16:18:02.582Z,102968.87
2018-10-01T16:20:31.301Z,102962.86
2018-10-01T16:23:00.005Z,102968.72
2018-10-01T16:25:28.737Z,102966.20
2018-10-01T16:27:57.423Z,102965.08
2018-10-01T16:30:26.109Z,102966.48
2018-10-01T16:32:54.808Z,102964.28
2018-10-01T16:35:23.519Z,102975.41
2018-10-01T16:37:52.269Z,102965.69
2018-10-01T16:40:20.965Z,102965.98
2018-10-01T16:42:49.736Z,102967.50
2018-10-01T16:45:18.546Z,102972.56
2018-10-01T16:47:47.315Z,102967.48
2018-10-01T16:50:16.065Z,102975.02
2018-10-01T16:52:44.795Z,102982.61
2018-10-01T16:55:13.555Z,102975.47
2018-10-01T16:57:42.298Z,102982.69
2018-10-01T17:00:11.072Z,102967.17
2018-10-01T17:02:39.793Z,102962.09
2018-10-01T17:05:08.552Z,102964.73
2018-10-01T17:07:37.289Z,102965.23
2018-10-01T17:10:06.182Z,102969.25
2018-10-01T17:12:34.940Z,102965.81
2018-10-01T17:15:03.682Z,102970.61
2018-10-01T17:17:32.406Z,102978.55
2018-10-01T17:20:01.110Z,102964.72
2018-10-01T17:22:29.811Z,102978.03
2018-10-01T17:24:58.540Z,102988.16
2018-10-01T17:27:27.236Z,102975.64
2018-10-01T17:29:56.156Z,102973.98
2018-10-01T17:32:25.009Z,102973.73
2018-10-01T17:34:53.889Z,102972.94
2018-10-01T17:37:22.780Z,102974.75
2018-10-01T17:39:51.547Z,102966.02
2018-10-01T17:42:20.501Z,102963.48
2018-10-01T17:44:49.453Z,102961.85
2018-10-01T17:47:18.348Z,102957.19
2018-10-01T17:49:47.310Z,102957.26
2018-10-01T17:52:16.152Z,102960.39
2018-10-01T17:54:45.704Z,102966.14
2018-10-01T17:57:14.412Z,102953.63
2018-10-01T17:59:43.233Z,102958.00
2018-10-01T18:02:11.892Z,102953.65
2018-10-01T18:04:40.667Z,102950.71
2018-10-01T18:07:09.540Z,102947.73
2018-10-01T18:09:38.258Z,102959.59
2018-10-01T18:12:07.021Z,102950.10
2018-10-01T18:14:35.805Z,102948.80
2018-10-01T18:17:04.580Z,102954.52
2018-10-01T18:19:33.494Z,102948.86
2018-10-01T18:22:02.200Z,102946.73
2018-10-01T18:24:30.884Z,102947.69
2018-10-01T18:26:59.577Z,102945.45
2018-10-01T18:29:28.278Z,102948.54
2018-10-01T18:31:57.029Z,102944.19
2018-10-01T18:34:25.680Z,102941.57
2018-10-01T18:36:54.396Z,102938.14
2018-10-01T18:39:25.340Z,102930.31
2018-10-01T18:41:54.093Z,102931.67
2018-10-01T18:44:22.730Z,102925.94
2018-10-01T18:46:51.589Z,102918.09
2018-10-01T18:49:20.307Z,102907.32
2018-10-01T18:51:49.131Z,102903.82
2018-10-01T18:54:18.410Z,102912.05
2018-10-01T18:56:47.323Z,102908.12
2018-10-01T18:59:17.044Z,102909.45
2018-10-01T19:01:45.955Z,102903.34
2018-10-01T19:04:14.784Z,102902.03
2018-10-01T19:06:43.962Z,102908.63
2018-10-01T19:09:13.811Z,102915.61
2018-10-01T19:11:43.797Z,102917.78
2018-10-01T19:14:13.524Z,102917.78
2018-10-01T19:16:42.937Z,102909.98
2018-10-01T19:19:11.900Z,102916.85
2018-10-01T19:21:40.645Z,102919.03
2018-10-01T19:24:09.439Z,102910.80
2018-10-01T19:26:38.456Z,102919.47
2018-10-01T19:29:07.367Z,102921.22
2018-10-01T19:31:36.375Z,102922.51
2018-10-01T19:34:05.245Z,102915.98
2018-10-01T19:36:35.305Z,102922.51
2018-10-01T19:39:08.581Z,102919.40
2018-10-01T19:41:38.316Z,102925.89
2018-10-01T19:44:07.118Z,102925.06
2018-10-01T19:46:35.934Z,102923.70
2018-10-01T19:49:04.834Z,102923.26
2018-10-01T19:51:33.630Z,102918.89
2018-10-01T19:54:02.523Z,102915.41
2018-10-01T19:56:31.251Z,102923.68
2018-10-01T19:59:00.833Z,102900.15
2018-10-01T20:01:29.663Z,102904.00
2018-10-01T20:03:58.586Z,102907.87
2018-10-01T20:06:27.338Z,102899.57
2018-10-01T20:08:56.185Z,102900.01
2018-10-01T20:11:25.064Z,102910.92
2018-10-01T20:13:53.800Z,102895.66
2018-10-01T20:16:22.641Z,102890.48
2018-10-01T20:18:51.461Z,102898.72
2018-10-01T20:21:20.203Z,102885.17
2018-10-01T20:23:48.964Z,102879.96
2018-10-01T20:26:17.881Z,102885.17
2018-10-01T20:28:47.052Z,102876.02
2018-10-01T20:31:15.666Z,102871.67
2018-10-01T20:33:44.430Z,102854.61
2018-10-01T20:36:13.223Z,102843.40
2018-10-01T20:38:41.994Z,102859.39
2018-10-01T20:41:10.992Z,102859.84
2018-10-01T20:43:39.882Z,102857.20
2018-10-01T20:46:08.867Z,102847.69
2018-10-01T20:48:37.792Z,102860.39
2018-10-01T20:51:06.552Z,102868.61
2018-10-01T20:53:35.437Z,102876.02
2018-10-01T20:56:04.275Z,102872.48
2018-10-01T20:58:33.075Z,102875.16
2018-10-01T21:01:01.965Z,102873.03
2018-10-01T21:03:30.853Z,102862.51
2018-10-01T21:05:59.649Z,102869.00
2018-10-01T21:08:28.680Z,102862.88
2018-10-01T21:10:57.449Z,102858.07
2018-10-01T21:13:26.288Z,102846.23
2018-10-01T21:15:55.077Z,102852.70
2018-10-01T21:18:23.892Z,102848.78
2018-10-01T21:20:52.704Z,102840.05
2018-10-01T21:23:21.421Z,102829.13
2018-10-01T21:25:50.164Z,102823.90
2018-10-01T21:28:18.874Z,102818.38
2018-10-01T21:30:47.532Z,102817.30
2018-10-01T21:33:16.234Z,102822.48
2018-10-01T21:35:44.934Z,102811.57
2018-10-01T21:38:13.643Z,102806.75
2018-10-01T21:40:42.400Z,102803.70
2018-10-01T21:43:11.100Z,102801.02
2018-10-01T21:45:39.822Z,102801.47
2018-10-01T21:48:08.552Z,102798.83
2018-10-01T21:50:37.279Z,102793.59
2018-10-01T21:53:06.069Z,102788.72
2018-10-01T21:55:34.748Z,102788.30
2018-10-01T21:58:03.492Z,102793.02
2018-10-01T22:00:37.462Z,102783.44
2018-10-01T22:03:06.137Z,102777.66
2018-10-01T22:05:34.868Z,102774.56
2018-10-01T22:08:03.580Z,102771.02
2018-10-01T22:10:32.300Z,102769.19
2018-10-01T22:13:01.008Z,102766.63
2018-10-01T22:15:33.850Z,102769.55
2018-10-01T22:18:02.624Z,102763.43
2018-10-01T22:20:31.412Z,102761.20
2018-10-01T22:23:00.136Z,102745.05
2018-10-01T22:25:28.828Z,102748.95
2018-10-01T22:27:57.549Z,102751.95
2018-10-01T22:30:26.284Z,102747.50
2018-10-01T22:32:54.997Z,102761.31
2018-10-01T22:35:23.712Z,102740.73
2018-10-01T22:37:52.626Z,102749.39
2018-10-01T22:40:21.327Z,102748.94
2018-10-01T22:42:50.111Z,102747.12
2018-10-01T22:45:18.805Z,102744.06
2018-10-01T22:47:47.488Z,102756.69
2018-10-01T22:50:16.205Z,102735.23
2018-10-01T22:52:44.933Z,102730.44
2018-10-01T22:55:13.697Z,102723.44
2018-10-01T22:57:42.500Z,102721.33
2018-10-01T23:00:11.264Z,102715.95
2018-10-01T23:02:39.962Z,102723.30
2018-10-01T23:05:08.671Z,102716.33
2018-10-01T23:07:37.352Z,102730.27
2018-10-01T23:10:06.043Z,102716.72
2018-10-01T23:12:34.792Z,102705.31
2018-10-01T23:15:03.514Z,102700.52
2018-10-01T23:17:32.208Z,102687.40
2018-10-01T23:20:00.916Z,102693.02
2018-10-01T23:22:29.643Z,102682.96
2018-10-01T23:24:58.351Z,102686.00
2018-10-01T23:27:27.047Z,102683.77
2018-10-01T23:29:55.722Z,102681.14
2018-10-01T23:32:24.503Z,102674.06
2018-10-01T23:34:53.101Z,102674.92
2018-10-01T23:37:21.777Z,102671.53
2018-10-01T23:39:50.584Z,102668.38
2018-10-01T23:42:19.289Z,102685.78
2018-10-01T23:44:47.958Z,102681.02
2018-10-01T23:47:16.608Z,102684.38
2018-10-01T23:49:45.277Z,102679.56
2018-10-01T23:52:13.927Z,102670.48
2018-10-01T23:54:42.598Z,102671.28
2018-10-01T23:57:11.278Z,102682.59
2018-10-01T23:59:39.939Z,102667.27
